createdAt,value
2018-02-02T00:06:32.112Z,25.45
2018-02-02T00:14:14.072Z,29.35
2018-02-02T00:21:50.316Z,19.50
2018-02-02T00:24:18.540Z,24.33
2018-02-02T00:29:26.324Z,21.52
2018-02-02T00:31:59.052Z,17.40
2018-02-02T00:34:29.080Z,15.95
2018-02-02T00:37:01.684Z,21.15
2018-02-02T00:39:32.500Z,16.25
2018-02-02T00:47:19.082Z,22.05
2018-02-02T00:49:52.352Z,18.40
2018-02-02T00:52:20.628Z,21.95
2018-02-02T00:54:54.860Z,24.27
2018-02-02T00:57:28.696Z,14.93
2018-02-02T01:00:04.316Z,12.37
2018-02-02T01:05:08.288Z,16.42
2018-02-02T01:10:10.420Z,16.67
2018-02-02T01:12:42.016Z,11.77
2018-02-02T01:15:18.924Z,12.13
2018-02-02T01:17:47.407Z,14.98
2018-02-02T01:20:35.396Z,10.63
2018-02-02T01:25:52.716Z,9.38
2018-02-02T01:28:23.799Z,13.07
2018-02-02T01:30:53.160Z,8.55
2018-02-02T01:33:28.867Z,13.27
2018-02-02T01:36:08.288Z,9.10
2018-02-02T01:38:39.700Z,10.98
2018-02-02T01:41:09.383Z,12.75
2018-02-02T01:43:44.616Z,8.77
2018-02-02T01:46:20.536Z,9.98
2018-02-02T01:48:54.071Z,10.32
2018-02-02T01:51:23.335Z,9.38
2018-02-02T01:53:56.097Z,15.10
2018-02-02T01:56:25.532Z,9.15
2018-02-02T01:58:58.196Z,8.93
2018-02-02T02:01:29.522Z,10.77
2018-02-02T02:03:59.763Z,15.13
2018-02-02T02:06:38.463Z,9.40
2018-02-02T02:09:07.712Z,9.20
2018-02-02T02:16:47.207Z,12.80
2018-02-02T02:19:21.995Z,15.57
2018-02-02T02:21:53.147Z,13.15
2018-02-02T02:24:28.128Z,14.82
2018-02-02T02:26:59.731Z,12.52
2018-02-02T02:29:35.575Z,19.02
2018-02-02T02:32:12.055Z,10.60
2018-02-02T02:34:47.127Z,11.35
2018-02-02T02:37:16.671Z,14.57
2018-02-02T02:39:50.655Z,14.30
2018-02-02T02:42:24.755Z,17.15
2018-02-02T02:44:58.820Z,11.90
2018-02-02T02:47:29.259Z,10.98
2018-02-02T02:50:01.978Z,12.57
2018-02-02T02:57:43.180Z,12.48
2018-02-02T03:00:15.552Z,15.43
2018-02-02T03:05:25.675Z,14.25
2018-02-02T03:28:54.688Z,13.40
2018-02-02T03:31:27.244Z,11.85
2018-02-02T03:33:55.303Z,14.82
2018-02-02T03:36:30.419Z,13.20
2018-02-02T03:44:11.295Z,12.25
2018-02-02T03:49:17.399Z,19.30
2018-02-02T03:51:50.751Z,22.10
2018-02-02T03:54:21.255Z,12.63
2018-02-02T03:56:53.575Z,11.38
2018-02-02T03:59:25.275Z,13.40
2018-02-02T04:01:58.447Z,11.15
2018-02-02T04:04:28.559Z,15.10
2018-02-02T04:06:58.375Z,12.88
2018-02-02T04:09:27.642Z,12.18
2018-02-02T04:11:58.651Z,12.63
2018-02-02T04:14:32.779Z,15.88
2018-02-02T04:17:13.867Z,13.10
2018-02-02T04:19:53.662Z,19.65
2018-02-02T04:27:33.375Z,15.73
2018-02-02T04:30:06.891Z,15.98
2018-02-02T04:32:37.715Z,21.62
2018-02-02T04:35:14.947Z,23.70
2018-02-02T04:37:44.679Z,13.25
2018-02-02T04:40:14.191Z,18.55
2018-02-02T04:42:50.487Z,13.98
2018-02-02T04:45:31.979Z,17.35
2018-02-02T04:48:05.899Z,16.77
2018-02-02T04:50:39.982Z,15.13
2018-02-02T04:53:13.815Z,17.52
2018-02-02T04:55:43.243Z,16.83
2018-02-02T04:58:12.239Z,17.25
2018-02-02T05:00:40.271Z,21.98
2018-02-02T05:03:12.802Z,17.85
2018-02-02T05:05:42.590Z,14.27
2018-02-02T05:08:10.634Z,19.17
2018-02-02T05:10:44.755Z,17.30
2018-02-02T05:13:16.007Z,22.08
2018-02-02T05:15:49.827Z,23.65
2018-02-02T05:18:19.839Z,22.27
2018-02-02T05:20:47.895Z,15.68
2018-02-02T05:23:15.935Z,20.40
2018-02-02T05:25:47.022Z,21.25
2018-02-02T05:28:15.059Z,24.30
2018-02-02T05:30:48.494Z,22.10
2018-02-02T05:33:16.538Z,36.80
2018-02-02T05:35:46.578Z,19.62
2018-02-02T05:38:16.654Z,27.27
2018-02-02T05:40:54.582Z,19.80
2018-02-02T05:43:27.506Z,23.45
2018-02-02T05:45:56.478Z,20.02
2018-02-02T05:48:24.506Z,27.15
2018-02-02T05:50:57.726Z,26.17
2018-02-02T05:53:34.270Z,25.17
2018-02-02T05:56:04.218Z,20.33
2018-02-02T05:58:32.242Z,25.90
2018-02-02T06:01:00.298Z,29.23
2018-02-02T06:03:29.230Z,23.83
2018-02-02T06:05:58.238Z,30.48
2018-02-02T06:08:26.282Z,28.67
2018-02-02T06:10:55.342Z,22.10
2018-02-02T06:13:25.318Z,39.97
2018-02-02T06:15:55.330Z,30.40
2018-02-02T06:18:23.358Z,23.42
2018-02-02T06:20:55.572Z,22.85
2018-02-02T06:23:24.306Z,32.85
2018-02-02T06:25:53.338Z,22.40
2018-02-02T06:28:21.382Z,32.15
2018-02-02T06:30:56.430Z,28.35
2018-02-02T06:33:25.478Z,30.80
2018-02-02T06:35:54.430Z,32.67
2018-02-02T06:38:29.362Z,32.35
2018-02-02T06:41:07.578Z,27.40
2018-02-02T06:43:36.606Z,27.77
2018-02-02T06:46:11.882Z,27.15
2018-02-02T06:48:40.913Z,28.92
2018-02-02T06:51:09.910Z,27.77
2018-02-02T06:53:39.725Z,21.45
2018-02-02T06:59:17.186Z,24.33
2018-02-02T07:01:46.134Z,32.35
2018-02-02T07:04:14.966Z,29.70
2018-02-02T07:06:42.986Z,23.05
2018-02-02T07:09:15.030Z,25.55
2018-02-02T07:11:44.022Z,32.47
2018-02-02T07:14:13.022Z,28.25
2018-02-02T07:16:41.044Z,30.60
2018-02-02T07:19:15.870Z,27.60
2018-02-02T07:21:45.842Z,27.70
2018-02-02T07:24:17.997Z,28.38
2018-02-02T07:26:49.950Z,29.58
2018-02-02T07:29:18.050Z,31.25
2018-02-02T07:31:50.641Z,28.12
2018-02-02T07:34:27.169Z,25.98
2018-02-02T07:36:55.205Z,27.52
2018-02-02T07:39:26.925Z,31.17
2018-02-02T07:41:54.965Z,25.70
2018-02-02T07:44:26.443Z,31.75
2018-02-02T07:46:55.253Z,26.00
2018-02-02T07:49:23.282Z,22.48
2018-02-02T07:52:06.377Z,22.85
2018-02-02T07:54:44.329Z,25.12
2018-02-02T07:57:14.013Z,21.40
2018-02-02T07:59:47.501Z,23.15
2018-02-02T08:02:17.433Z,18.85
2018-02-02T08:04:48.113Z,19.58
2018-02-02T08:07:17.049Z,18.67
2018-02-02T08:09:46.033Z,20.00
2018-02-02T08:12:14.073Z,15.93
2018-02-02T08:14:43.989Z,19.25
2018-02-02T08:17:13.005Z,19.95
2018-02-02T08:19:55.753Z,22.62
2018-02-02T08:22:31.650Z,16.60
2018-02-02T08:24:59.689Z,15.98
2018-02-02T08:27:27.706Z,15.38
2018-02-02T08:30:02.033Z,14.52
2018-02-02T08:32:33.077Z,23.00
2018-02-02T08:35:05.853Z,10.52
2018-02-02T08:37:39.649Z,12.15
2018-02-02T08:40:07.757Z,12.98
2018-02-02T08:42:38.453Z,12.07
2018-02-02T08:45:10.045Z,9.95
2018-02-02T08:47:39.821Z,12.93
2018-02-02T08:50:08.745Z,13.60
2018-02-02T08:52:39.461Z,13.10
2018-02-02T08:55:07.473Z,8.98
2018-02-02T08:57:35.530Z,9.23
2018-02-02T09:00:05.197Z,8.00
2018-02-02T09:02:37.776Z,9.70
2018-02-02T09:05:12.164Z,10.93
2018-02-02T09:07:50.057Z,5.53
2018-02-02T09:10:21.197Z,7.30
2018-02-02T09:12:51.149Z,6.43
2018-02-02T09:15:19.173Z,6.32
2018-02-02T09:17:54.737Z,9.45
2018-02-02T09:20:26.109Z,6.37
2018-02-02T09:22:54.145Z,6.32
2018-02-02T09:25:22.160Z,5.00
2018-02-02T09:27:55.153Z,8.13
2018-02-02T09:30:23.169Z,3.53
2018-02-02T09:32:55.297Z,5.22
2018-02-02T09:35:27.149Z,4.25
2018-02-02T09:37:58.888Z,9.35
2018-02-02T09:40:26.918Z,6.15
2018-02-02T09:43:09.764Z,3.42
2018-02-02T09:45:42.141Z,2.62
2018-02-02T09:48:10.165Z,2.80
2018-02-02T09:50:40.077Z,2.37
2018-02-02T09:53:08.100Z,3.60
2018-02-02T09:55:56.172Z,3.17
2018-02-02T09:58:25.853Z,3.28
2018-02-02T10:00:55.865Z,2.25
2018-02-02T10:03:24.688Z,4.78
2018-02-02T10:05:54.450Z,4.82
2018-02-02T10:08:22.472Z,5.78
2018-02-02T10:10:55.893Z,2.47
2018-02-02T10:13:25.820Z,3.70
2018-02-02T10:15:54.816Z,3.15
2018-02-02T10:18:30.724Z,2.65
2018-02-02T10:21:03.120Z,5.10
2018-02-02T10:23:38.688Z,2.30
2018-02-02T10:26:10.816Z,5.72
2018-02-02T10:28:42.573Z,6.03
2018-02-02T10:31:12.536Z,2.45
2018-02-02T10:33:41.460Z,3.33
2018-02-02T10:36:16.000Z,3.05
2018-02-02T10:38:44.941Z,3.45
2018-02-02T10:44:06.540Z,3.05
2018-02-02T10:46:34.564Z,3.83
2018-02-02T10:49:10.444Z,4.37
2018-02-02T10:51:39.224Z,3.53
2018-02-02T10:54:08.012Z,4.30
2018-02-02T10:56:36.900Z,2.42
2018-02-02T10:59:05.696Z,6.62
2018-02-02T11:01:36.412Z,6.78
2018-02-02T11:04:13.644Z,2.90
2018-02-02T11:06:41.660Z,2.75
2018-02-02T11:09:10.612Z,6.18
2018-02-02T11:11:43.520Z,4.22
2018-02-02T11:14:18.120Z,10.07
2018-02-02T11:16:48.028Z,3.28
2018-02-02T11:19:16.044Z,4.80
2018-02-02T11:21:54.565Z,3.40
2018-02-02T11:24:29.302Z,6.43
2018-02-02T11:27:03.068Z,6.85
2018-02-02T11:29:34.324Z,1.92
2018-02-02T11:32:03.329Z,2.35
2018-02-02T11:34:31.336Z,5.57
2018-02-02T11:36:59.352Z,2.45
2018-02-02T11:39:33.624Z,5.65
2018-02-02T11:42:02.536Z,4.00
2018-02-02T11:44:30.560Z,7.75
2018-02-02T11:46:58.588Z,4.87
2018-02-02T11:49:36.808Z,4.75
2018-02-02T11:52:12.331Z,4.53
2018-02-02T11:54:42.225Z,6.25
2018-02-02T11:57:21.162Z,6.75
2018-02-02T11:59:53.156Z,4.55
2018-02-02T12:02:25.297Z,5.72
2018-02-02T12:04:54.036Z,4.47
2018-02-02T12:07:22.052Z,7.78
2018-02-02T12:09:57.328Z,4.70
2018-02-02T12:12:35.116Z,7.28
2018-02-02T12:15:07.795Z,7.55
2018-02-02T12:17:40.512Z,5.87
2018-02-02T12:20:13.380Z,7.53
2018-02-02T12:22:51.728Z,9.23
2018-02-02T12:25:25.448Z,1.98
2018-02-02T12:28:07.196Z,3.87
2018-02-02T12:30:51.768Z,4.68
2018-02-02T12:33:33.208Z,2.45
2018-02-02T12:36:11.748Z,3.75
2018-02-02T12:38:41.524Z,4.90
2018-02-02T12:41:13.168Z,7.93
2018-02-02T12:43:46.924Z,2.37
2018-02-02T12:46:20.496Z,8.93
2018-02-02T12:49:09.489Z,3.58
2018-02-02T12:51:38.396Z,6.93
2018-02-02T12:54:08.361Z,2.08
2018-02-02T12:56:42.247Z,2.33
2018-02-02T12:59:10.336Z,2.20
2018-02-02T13:01:42.040Z,5.45
2018-02-02T13:04:10.676Z,5.93
2018-02-02T13:06:39.696Z,6.30
2018-02-02T13:09:07.720Z,4.65
2018-02-02T13:11:36.724Z,4.65
2018-02-02T13:14:07.884Z,13.98
2018-02-02T13:16:35.895Z,2.55
2018-02-02T13:19:03.920Z,4.65
2018-02-02T13:21:31.932Z,3.42
2018-02-02T13:24:05.016Z,5.05
2018-02-02T13:26:33.956Z,6.82
2018-02-02T13:29:01.972Z,4.30
2018-02-02T13:31:30.929Z,10.35
2018-02-02T13:33:59.092Z,8.25
2018-02-02T13:36:27.060Z,3.20
2018-02-02T13:38:55.080Z,2.28
2018-02-02T13:41:30.160Z,6.22
2018-02-02T13:43:59.107Z,5.00
2018-02-02T13:46:27.154Z,6.55
2018-02-02T13:48:56.116Z,6.40
2018-02-02T13:51:24.140Z,6.87
2018-02-02T13:53:57.584Z,4.32
2018-02-02T13:56:27.504Z,7.53
2018-02-02T13:58:55.524Z,7.15
2018-02-02T14:01:23.544Z,7.30
2018-02-02T14:03:51.563Z,4.93
2018-02-02T14:06:19.623Z,4.87
2018-02-02T14:08:52.652Z,9.35
2018-02-02T14:11:22.674Z,8.43
2018-02-02T14:13:51.668Z,2.72
2018-02-02T14:16:19.680Z,7.25
2018-02-02T14:18:48.504Z,8.90
2018-02-02T14:21:16.531Z,34.38
2018-02-02T14:23:47.335Z,9.80
2018-02-02T14:26:17.255Z,5.18
2018-02-02T14:28:45.256Z,6.07
2018-02-02T14:31:13.527Z,6.45
2018-02-02T14:33:46.615Z,5.20
2018-02-02T14:36:14.647Z,11.23
2018-02-02T14:38:43.643Z,4.10
2018-02-02T14:41:17.011Z,4.28
2018-02-02T14:43:48.555Z,7.75
2018-02-02T14:46:17.611Z,4.60
2018-02-02T14:48:46.427Z,5.55
2018-02-02T14:51:17.639Z,7.47
2018-02-02T14:53:45.815Z,3.47
2018-02-02T14:56:14.719Z,7.97
2018-02-02T14:58:43.703Z,13.55
2018-02-02T15:01:12.479Z,7.00
2018-02-02T15:03:40.527Z,4.82
2018-02-02T15:06:08.567Z,4.80
2018-02-02T15:08:37.672Z,6.85
2018-02-02T15:11:10.196Z,9.05
2018-02-02T15:13:39.319Z,4.90
2018-02-02T15:16:07.343Z,6.40
2018-02-02T15:18:35.371Z,15.43
2018-02-02T15:21:03.407Z,12.70
2018-02-02T15:23:32.375Z,9.35
2018-02-02T15:26:01.387Z,10.20
2018-02-02T15:28:30.251Z,11.18
2018-02-02T15:30:59.207Z,5.62
2018-02-02T15:33:33.283Z,6.62
2018-02-02T15:36:01.295Z,6.82
2018-02-02T15:38:30.367Z,11.15
2018-02-02T15:41:00.215Z,5.87
2018-02-02T15:43:34.755Z,10.40
2018-02-02T15:46:03.727Z,8.57
2018-02-02T15:48:38.835Z,5.45
2018-02-02T15:51:08.959Z,7.50
2018-02-02T15:53:39.019Z,11.32
2018-02-02T15:56:13.383Z,10.05
2018-02-02T15:58:44.357Z,7.50
2018-02-02T16:01:14.387Z,8.77
2018-02-02T16:03:42.407Z,8.50
2018-02-02T16:06:11.351Z,8.48
2018-02-02T16:08:43.667Z,7.15
2018-02-02T16:11:11.691Z,10.13
2018-02-02T16:13:39.732Z,21.90
2018-02-02T16:16:07.759Z,18.33
2018-02-02T16:18:36.555Z,16.83
2018-02-02T16:21:06.479Z,17.95
2018-02-02T16:23:34.547Z,17.67
2018-02-02T16:26:02.523Z,14.52
2018-02-02T16:28:30.535Z,12.23
2018-02-02T16:31:19.539Z,8.82
2018-02-02T16:33:53.003Z,9.40
2018-02-02T16:36:21.023Z,7.40
2018-02-02T16:38:59.287Z,13.65
2018-02-02T16:41:34.183Z,5.37
2018-02-02T16:44:02.203Z,10.35
2018-02-02T16:46:30.995Z,15.05
2018-02-02T16:49:10.471Z,6.75
2018-02-02T16:51:46.219Z,7.35
2018-02-02T16:54:30.619Z,23.60
2018-02-02T16:56:59.526Z,9.98
2018-02-02T16:59:31.027Z,5.97
2018-02-02T17:02:02.991Z,9.32
2018-02-02T17:04:37.389Z,4.15
2018-02-02T17:07:06.483Z,10.13
2018-02-02T17:09:37.051Z,4.35
2018-02-02T17:12:07.843Z,4.10
2018-02-02T17:14:38.314Z,13.88
2018-02-02T17:17:06.855Z,4.95
2018-02-02T17:19:36.667Z,6.70
2018-02-02T17:22:06.584Z,12.20
2018-02-02T17:24:35.438Z,5.60
2018-02-02T17:27:05.635Z,8.20
2018-02-02T17:29:35.530Z,9.60
2018-02-02T17:32:04.510Z,4.97
2018-02-02T17:34:36.415Z,10.30
2018-02-02T17:37:07.411Z,5.43
2018-02-02T17:39:35.734Z,10.23
2018-02-02T17:42:04.806Z,15.10
2018-02-02T17:44:35.450Z,5.80
2018-02-02T17:47:05.755Z,4.95
2018-02-02T17:49:36.330Z,6.80
2018-02-02T17:52:06.055Z,5.70
2018-02-02T17:57:34.178Z,7.03
2018-02-02T18:00:22.122Z,7.35
2018-02-02T18:02:56.698Z,5.30
2018-02-02T18:05:30.571Z,6.53
2018-02-02T18:07:59.791Z,16.02
2018-02-02T18:10:49.487Z,6.62
2018-02-02T18:13:17.671Z,8.55
2018-02-02T18:15:54.159Z,7.90
2018-02-02T18:18:22.432Z,4.05
2018-02-02T18:20:52.646Z,4.12
2018-02-02T18:23:20.726Z,6.78
2018-02-02T18:25:49.026Z,6.18
2018-02-02T18:28:20.954Z,7.65
2018-02-02T18:30:50.091Z,9.25
2018-02-02T18:33:21.126Z,10.82
2018-02-02T18:35:49.167Z,26.35
2018-02-02T18:38:18.178Z,11.35
2018-02-02T18:40:53.882Z,9.75
2018-02-02T18:43:22.906Z,10.27
2018-02-02T18:46:02.306Z,16.62
2018-02-02T18:48:30.385Z,10.40
2018-02-02T18:51:00.330Z,11.60
2018-02-02T18:53:41.334Z,14.60
2018-02-02T18:56:13.678Z,7.97
2018-02-02T18:58:46.458Z,6.00
2018-02-02T19:01:20.158Z,6.85
2018-02-02T19:03:54.066Z,5.97
2018-02-02T19:06:25.726Z,6.53
2018-02-02T19:08:54.638Z,7.55
2018-02-02T19:11:29.838Z,9.65
2018-02-02T19:13:57.899Z,5.18
2018-02-02T19:16:28.014Z,10.65
2018-02-02T19:18:59.398Z,5.78
2018-02-02T19:21:28.386Z,3.20
2018-02-02T19:23:56.442Z,9.02
2018-02-02T19:26:26.522Z,5.57
2018-02-02T19:28:55.954Z,9.73
2018-02-02T19:31:28.077Z,11.18
2018-02-02T19:34:01.750Z,7.25
2018-02-02T19:36:31.034Z,7.18
2018-02-02T19:39:08.986Z,7.30
2018-02-02T19:41:38.097Z,7.05
2018-02-02T19:44:14.268Z,10.70
2018-02-02T19:46:47.001Z,5.70
2018-02-02T19:49:16.016Z,9.27
2018-02-02T19:51:55.278Z,4.55
2018-02-02T19:54:37.798Z,8.40
2018-02-02T19:57:11.194Z,5.10
2018-02-02T19:59:41.398Z,8.13
2018-02-02T20:02:20.814Z,4.85
2018-02-02T20:04:58.174Z,4.47
2018-02-02T20:07:27.234Z,6.68
2018-02-02T20:09:57.993Z,4.90
2018-02-02T20:12:35.713Z,15.23
2018-02-02T20:15:05.777Z,3.50
2018-02-02T20:17:40.460Z,10.68
2018-02-02T20:20:09.945Z,4.75
2018-02-02T20:22:38.469Z,4.85
2018-02-02T20:25:07.501Z,3.40
2018-02-02T20:27:40.209Z,5.85
2018-02-02T20:30:12.889Z,5.68
2018-02-02T20:32:41.857Z,4.25
2018-02-02T20:35:09.975Z,6.68
2018-02-02T20:37:38.281Z,4.80
2018-02-02T20:40:14.109Z,10.23
2018-02-02T20:42:46.137Z,4.57
2018-02-02T20:45:16.420Z,4.03
2018-02-02T20:47:45.561Z,8.85
2018-02-02T20:50:19.189Z,5.15
2018-02-02T20:52:49.565Z,13.52
2018-02-02T20:55:17.901Z,5.68
2018-02-02T20:57:46.861Z,6.50
2018-02-02T21:00:18.105Z,5.78
2018-02-02T21:02:54.485Z,6.03
2018-02-02T21:05:24.509Z,5.28
2018-02-02T21:07:57.109Z,6.97
2018-02-02T21:10:29.041Z,5.22
2018-02-02T21:13:00.680Z,11.27
2018-02-02T21:15:52.177Z,9.93
2018-02-02T21:18:20.921Z,4.15
2018-02-02T21:20:53.477Z,7.75
2018-02-02T21:23:22.865Z,5.62
2018-02-02T21:25:52.649Z,7.30
2018-02-02T21:28:21.861Z,8.77
2018-02-02T21:30:55.757Z,5.10
2018-02-02T21:33:26.929Z,6.60
2018-02-02T21:36:00.561Z,5.53
2018-02-02T21:38:28.649Z,5.45
2018-02-02T21:40:57.041Z,9.00
2018-02-02T21:43:29.917Z,17.77
2018-02-02T21:46:02.181Z,14.27
2018-02-02T21:48:33.609Z,6.20
2018-02-02T21:51:06.533Z,8.82
2018-02-02T21:53:36.989Z,6.12
2018-02-02T21:56:11.177Z,8.95
2018-02-02T21:58:45.437Z,5.20
2018-02-02T22:01:16.193Z,5.93
2018-02-02T22:03:44.477Z,10.57
2018-02-02T22:06:13.549Z,8.77
2018-02-02T22:08:45.349Z,8.82
2018-02-02T22:11:18.085Z,8.38
2018-02-02T22:13:53.501Z,6.57
2018-02-02T22:16:22.549Z,10.73
2018-02-02T22:18:51.585Z,6.60
2018-02-02T22:21:20.493Z,7.68
2018-02-02T22:23:48.545Z,9.52
2018-02-02T22:26:20.089Z,10.02
2018-02-02T22:29:06.505Z,9.00
2018-02-02T22:31:46.439Z,7.57
2018-02-02T22:34:15.545Z,11.50
2018-02-02T22:36:58.229Z,6.82
2018-02-02T22:39:30.855Z,7.12
2018-02-02T22:42:03.921Z,5.55
2018-02-02T22:44:40.127Z,6.25
2018-02-02T22:47:12.973Z,7.93
2018-02-02T22:49:43.869Z,9.50
2018-02-02T22:52:13.437Z,8.93
2018-02-02T22:54:54.501Z,8.07
2018-02-02T22:57:28.561Z,6.30
2018-02-02T22:59:59.209Z,10.50
2018-02-02T23:02:34.097Z,14.15
2018-02-02T23:08:01.656Z,12.13
2018-02-02T23:10:33.876Z,6.55
2018-02-02T23:13:08.113Z,7.87
2018-02-02T23:15:37.505Z,17.73
2018-02-02T23:22:53.473Z,10.90
2018-02-02T23:25:28.868Z,17.60
2018-02-02T23:28:12.277Z,11.35
2018-02-02T23:33:37.161Z,8.75
2018-02-02T23:49:54.065Z,6.12
2018-02-02T23:52:34.501Z,10.85
2018-02-02T23:55:07.865Z,10.57
2018-02-02T23:57:42.784Z,9.45
